sensor_id;sensor_type;location;lat;lon;timestamp;pressure;altitude;pressure_sealevel;temperature;humidity
34482;BME280;20720;48.886;9.388;2022-10-30T00:00:39;98721.38;;;15.32;100.00
34482;BME280;20720;48.886;9.388;2022-10-30T00:03:04;98715.03;;;15.33;100.00
34482;BME280;20720;48.886;9.388;2022-10-30T00:05:30;98719.47;;;15.21;100.00
34482;BME280;20720;48.886;9.388;2022-10-30T00:07:56;98718.28;;;15.17;100.00
34482;BME280;20720;48.886;9.388;2022-10-30T00:10:22;98720.06;;;15.23;100.00
34482;BME280;20720;48.886;9.388;2022-10-30T00:12:48;98708.94;;;15.15;100.00
34482;BME280;20720;48.886;9.388;2022-10-30T00:15:13;98710.72;;;14.96;100.00
34482;BME280;20720;48.886;9.388;2022-10-30T00:17:38;98710.03;;;14.82;100.00
34482;BME280;20720;48.886;9.388;2022-10-30T00:20:04;98713.66;;;14.88;100.00
34482;BME280;20720;48.886;9.388;2022-10-30T00:22:30;98710.28;;;14.99;100.00
34482;BME280;20720;48.886;9.388;2022-10-30T00:24:55;98702.25;;;15.12;100.00
34482;BME280;20720;48.886;9.388;2022-10-30T00:27:20;98706.34;;;15.08;100.00
34482;BME280;20720;48.886;9.388;2022-10-30T00:29:46;98707.75;;;14.86;100.00
34482;BME280;20720;48.886;9.388;2022-10-30T00:32:11;98712.69;;;14.82;100.00
34482;BME280;20720;48.886;9.388;2022-10-30T00:34:37;98697.41;;;14.84;100.00
34482;BME280;20720;48.886;9.388;2022-10-30T00:37:02;98692.72;;;14.62;100.00
34482;BME280;20720;48.886;9.388;2022-10-30T00:39:27;98690.53;;;14.77;100.00
34482;BME280;20720;48.886;9.388;2022-10-30T00:41:53;98691.03;;;14.67;100.00
34482;BME280;20720;48.886;9.388;2022-10-30T00:49:49;98695.47;;;14.73;100.00
34482;BME280;20720;48.886;9.388;2022-10-30T00:52:15;98695.63;;;14.54;100.00
34482;BME280;20720;48.886;9.388;2022-10-30T00:54:41;98690.69;;;14.26;100.00
34482;BME280;20720;48.886;9.388;2022-10-30T00:57:08;98689.56;;;14.47;100.00
34482;BME280;20720;48.886;9.388;2022-10-30T00:59:34;98697.13;;;14.68;100.00
34482;BME280;20720;48.886;9.388;2022-10-30T01:02:01;98702.75;;;14.78;100.00
34482;BME280;20720;48.886;9.388;2022-10-30T01:04:28;98694.81;;;14.78;100.00
34482;BME280;20720;48.886;9.388;2022-10-30T01:06:54;98700.75;;;14.98;100.00
34482;BME280;20720;48.886;9.388;2022-10-30T01:09:20;98698.16;;;14.91;100.00
34482;BME280;20720;48.886;9.388;2022-10-30T01:11:46;98705.28;;;14.91;100.00
34482;BME280;20720;48.886;9.388;2022-10-30T01:14:14;98704.81;;;15.00;100.00
34482;BME280;20720;48.886;9.388;2022-10-30T01:19:43;98707.50;;;14.69;100.00
34482;BME280;20720;48.886;9.388;2022-10-30T01:22:21;98702.94;;;15.01;100.00
34482;BME280;20720;48.886;9.388;2022-10-30T01:25:02;98704.91;;;15.12;100.00
34482;BME280;20720;48.886;9.388;2022-10-30T01:28:06;98704.69;;;14.89;100.00
34482;BME280;20720;48.886;9.388;2022-10-30T01:35:59;98693.81;;;14.97;100.00
34482;BME280;20720;48.886;9.388;2022-10-30T01:38:43;98690.44;;;14.90;100.00
34482;BME280;20720;48.886;9.388;2022-10-30T01:41:11;98689.59;;;15.14;100.00
34482;BME280;20720;48.886;9.388;2022-10-30T01:43:37;98688.03;;;15.06;100.00
34482;BME280;20720;48.886;9.388;2022-10-30T01:51:38;98681.06;;;15.12;100.00
34482;BME280;20720;48.886;9.388;2022-10-30T01:59:48;98668.84;;;14.93;100.00
34482;BME280;20720;48.886;9.388;2022-10-30T02:02:15;98660.00;;;14.81;100.00
34482;BME280;20720;48.886;9.388;2022-10-30T02:04:41;98658.38;;;14.80;100.00
34482;BME280;20720;48.886;9.388;2022-10-30T02:07:07;98665.53;;;14.97;100.00
34482;BME280;20720;48.886;9.388;2022-10-30T02:09:32;98658.41;;;15.16;100.00
34482;BME280;20720;48.886;9.388;2022-10-30T02:11:59;98665.78;;;15.32;100.00
34482;BME280;20720;48.886;9.388;2022-10-30T02:14:29;98657.81;;;15.14;100.00
34482;BME280;20720;48.886;9.388;2022-10-30T02:16:57;98659.66;;;15.32;100.00
34482;BME280;20720;48.886;9.388;2022-10-30T02:19:24;98648.41;;;15.18;100.00
34482;BME280;20720;48.886;9.388;2022-10-30T02:21:50;98650.19;;;15.24;100.00
34482;BME280;20720;48.886;9.388;2022-10-30T02:24:16;98654.31;;;15.56;100.00
34482;BME280;20720;48.886;9.388;2022-10-30T02:26:41;98659.31;;;15.64;100.00
34482;BME280;20720;48.886;9.388;2022-10-30T02:29:06;98662.50;;;15.84;100.00
34482;BME280;20720;48.886;9.388;2022-10-30T02:31:31;98654.25;;;15.63;100.00
34482;BME280;20720;48.886;9.388;2022-10-30T02:33:57;98656.16;;;15.74;100.00
34482;BME280;20720;48.886;9.388;2022-10-30T02:36:22;98650.84;;;15.74;100.00
34482;BME280;20720;48.886;9.388;2022-10-30T02:38:47;98654.72;;;15.71;100.00
34482;BME280;20720;48.886;9.388;2022-10-30T02:41:13;98652.97;;;15.65;100.00
34482;BME280;20720;48.886;9.388;2022-10-30T02:43:38;98659.19;;;15.89;100.00
34482;BME280;20720;48.886;9.388;2022-10-30T02:46:04;98659.38;;;15.76;100.00
34482;BME280;20720;48.886;9.388;2022-10-30T02:48:29;98659.63;;;15.56;100.00
34482;BME280;20720;48.886;9.388;2022-10-30T02:50:59;98654.78;;;15.53;100.00
34482;BME280;20720;48.886;9.388;2022-10-30T02:53:25;98656.81;;;15.15;100.00
34482;BME280;20720;48.886;9.388;2022-10-30T02:55:50;98653.88;;;15.23;100.00
34482;BME280;20720;48.886;9.388;2022-10-30T02:58:15;98656.66;;;15.28;100.00
34482;BME280;20720;48.886;9.388;2022-10-30T03:00:41;98654.38;;;15.14;100.00
34482;BME280;20720;48.886;9.388;2022-10-30T03:03:06;98648.84;;;15.33;100.00
34482;BME280;20720;48.886;9.388;2022-10-30T03:05:31;98665.13;;;15.19;100.00
34482;BME280;20720;48.886;9.388;2022-10-30T03:07:56;98655.63;;;15.11;100.00
34482;BME280;20720;48.886;9.388;2022-10-30T03:10:22;98659.00;;;15.00;100.00
34482;BME280;20720;48.886;9.388;2022-10-30T03:12:47;98658.41;;;15.16;100.00
34482;BME280;20720;48.886;9.388;2022-10-30T03:15:12;98658.41;;;15.16;100.00
34482;BME280;20720;48.886;9.388;2022-10-30T03:17:37;98661.28;;;15.15;100.00
34482;BME280;20720;48.886;9.388;2022-10-30T03:20:03;98644.66;;;15.07;100.00
34482;BME280;20720;48.886;9.388;2022-10-30T03:22:28;98652.06;;;14.99;100.00
34482;BME280;20720;48.886;9.388;2022-10-30T03:24:54;98650.28;;;14.75;100.00
34482;BME280;20720;48.886;9.388;2022-10-30T03:27:19;98652.13;;;14.50;100.00
34482;BME280;20720;48.886;9.388;2022-10-30T03:29:44;98647.22;;;14.53;100.00
34482;BME280;20720;48.886;9.388;2022-10-30T03:32:10;98648.38;;;14.82;100.00
34482;BME280;20720;48.886;9.388;2022-10-30T03:34:36;98650.50;;;14.49;100.00
34482;BME280;20720;48.886;9.388;2022-10-30T03:37:01;98653.41;;;14.41;100.00
34482;BME280;20720;48.886;9.388;2022-10-30T03:39:27;98651.50;;;14.23;100.00
34482;BME280;20720;48.886;9.388;2022-10-30T03:41:52;98649.94;;;14.09;100.00
34482;BME280;20720;48.886;9.388;2022-10-30T03:44:17;98659.56;;;14.35;100.00
34482;BME280;20720;48.886;9.388;2022-10-30T03:46:42;98662.06;;;13.85;100.00
34482;BME280;20720;48.886;9.388;2022-10-30T03:49:08;98655.81;;;13.80;100.00
34482;BME280;20720;48.886;9.388;2022-10-30T03:51:33;98648.94;;;13.72;100.00
34482;BME280;20720;48.886;9.388;2022-10-30T03:53:58;98654.22;;;13.72;100.00
34482;BME280;20720;48.886;9.388;2022-10-30T03:56:23;98665.16;;;13.76;100.00
34482;BME280;20720;48.886;9.388;2022-10-30T03:58:49;98672.66;;;14.16;100.00
34482;BME280;20720;48.886;9.388;2022-10-30T04:01:14;98670.91;;;14.42;100.00
34482;BME280;20720;48.886;9.388;2022-10-30T04:03:39;98675.38;;;14.41;100.00
34482;BME280;20720;48.886;9.388;2022-10-30T04:06:05;98678.72;;;14.30;100.00
34482;BME280;20720;48.886;9.388;2022-10-30T04:08:31;98686.44;;;14.32;100.00
34482;BME280;20720;48.886;9.388;2022-10-30T04:10:57;98688.25;;;14.31;100.00
34482;BME280;20720;48.886;9.388;2022-10-30T04:13:22;98669.94;;;13.98;100.00
34482;BME280;20720;48.886;9.388;2022-10-30T04:15:48;98683.09;;;14.05;100.00
34482;BME280;20720;48.886;9.388;2022-10-30T04:18:14;98677.75;;;13.80;100.00
34482;BME280;20720;48.886;9.388;2022-10-30T04:20:40;98666.72;;;13.96;100.00
34482;BME280;20720;48.886;9.388;2022-10-30T04:23:08;98670.72;;;14.05;100.00
34482;BME280;20720;48.886;9.388;2022-10-30T04:25:36;98680.03;;;14.08;100.00
34482;BME280;20720;48.886;9.388;2022-10-30T04:28:01;98680.53;;;13.98;100.00
34482;BME280;20720;48.886;9.388;2022-10-30T04:30:27;98682.88;;;14.06;100.00
34482;BME280;20720;48.886;9.388;2022-10-30T04:32:58;98682.44;;;14.16;100.00
34482;BME280;20720;48.886;9.388;2022-10-30T04:35:25;98681.28;;;14.05;100.00
34482;BME280;20720;48.886;9.388;2022-10-30T04:38:11;98684.16;;;13.97;100.00
34482;BME280;20720;48.886;9.388;2022-10-30T04:40:40;98672.41;;;13.93;100.00
34482;BME280;20720;48.886;9.388;2022-10-30T04:43:06;98677.69;;;13.93;100.00
34482;BME280;20720;48.886;9.388;2022-10-30T04:45:32;98669.16;;;13.91;100.00
34482;BME280;20720;48.886;9.388;2022-10-30T04:48:15;98670.81;;;13.86;100.00
34482;BME280;20720;48.886;9.388;2022-10-30T04:50:41;98672.97;;;13.64;100.00
34482;BME280;20720;48.886;9.388;2022-10-30T04:53:18;98674.03;;;13.50;100.00
34482;BME280;20720;48.886;9.388;2022-10-30T04:55:43;98678.53;;;13.37;100.00
34482;BME280;20720;48.886;9.388;2022-10-30T04:58:09;98677.13;;;13.34;100.00
34482;BME280;20720;48.886;9.388;2022-10-30T05:00:36;98673.97;;;13.63;100.00
34482;BME280;20720;48.886;9.388;2022-10-30T05:03:01;98675.09;;;13.80;100.00
34482;BME280;20720;48.886;9.388;2022-10-30T05:05:29;98669.78;;;13.49;100.00
34482;BME280;20720;48.886;9.388;2022-10-30T05:07:54;98671.22;;;13.39;100.00
34482;BME280;20720;48.886;9.388;2022-10-30T05:10:19;98662.72;;;13.30;100.00
34482;BME280;20720;48.886;9.388;2022-10-30T05:12:45;98666.53;;;13.41;100.00
34482;BME280;20720;48.886;9.388;2022-10-30T05:15:11;98665.38;;;13.30;100.00
34482;BME280;20720;48.886;9.388;2022-10-30T05:17:37;98662.03;;;13.54;100.00
34482;BME280;20720;48.886;9.388;2022-10-30T05:20:04;98666.34;;;13.42;100.00
34482;BME280;20720;48.886;9.388;2022-10-30T05:22:29;98670.66;;;13.30;100.00
34482;BME280;20720;48.886;9.388;2022-10-30T05:24:54;98660.09;;;13.30;100.00
34482;BME280;20720;48.886;9.388;2022-10-30T05:27:20;98663.34;;;13.32;100.00
34482;BME280;20720;48.886;9.388;2022-10-30T05:29:45;98659.94;;;13.12;100.00
34482;BME280;20720;48.886;9.388;2022-10-30T05:32:10;98657.50;;;13.04;100.00
34482;BME280;20720;48.886;9.388;2022-10-30T05:34:35;98657.31;;;13.05;100.00
34482;BME280;20720;48.886;9.388;2022-10-30T05:37:01;98659.97;;;13.05;100.00
34482;BME280;20720;48.886;9.388;2022-10-30T05:39:26;98661.75;;;13.18;100.00
34482;BME280;20720;48.886;9.388;2022-10-30T05:41:52;98666.63;;;13.14;100.00
34482;BME280;20720;48.886;9.388;2022-10-30T05:44:17;98660.53;;;13.14;100.00
34482;BME280;20720;48.886;9.388;2022-10-30T05:46:42;98663.59;;;13.11;100.00
34482;BME280;20720;48.886;9.388;2022-10-30T05:49:08;98663.81;;;13.03;100.00
34482;BME280;20720;48.886;9.388;2022-10-30T05:51:33;98663.59;;;12.98;100.00
34482;BME280;20720;48.886;9.388;2022-10-30T05:53:58;98659.56;;;12.76;100.00
34482;BME280;20720;48.886;9.388;2022-10-30T05:56:23;98660.16;;;12.65;100.00
34482;BME280;20720;48.886;9.388;2022-10-30T05:58:49;98650.41;;;12.98;100.00
34482;BME280;20720;48.886;9.388;2022-10-30T06:01:15;98653.84;;;12.98;100.00
34482;BME280;20720;48.886;9.388;2022-10-30T06:03:40;98660.38;;;12.83;100.00
34482;BME280;20720;48.886;9.388;2022-10-30T06:06:06;98663.84;;;12.64;100.00
34482;BME280;20720;48.886;9.388;2022-10-30T06:08:31;98661.78;;;12.20;100.00
34482;BME280;20720;48.886;9.388;2022-10-30T06:10:56;98659.38;;;12.58;100.00
34482;BME280;20720;48.886;9.388;2022-10-30T06:13:22;98667.47;;;12.82;100.00
34482;BME280;20720;48.886;9.388;2022-10-30T06:15:47;98667.06;;;12.92;100.00
34482;BME280;20720;48.886;9.388;2022-10-30T06:18:12;98666.66;;;12.75;100.00
34482;BME280;20720;48.886;9.388;2022-10-30T06:20:38;98668.28;;;12.83;100.00
34482;BME280;20720;48.886;9.388;2022-10-30T06:23:07;98669.91;;;12.77;100.00
34482;BME280;20720;48.886;9.388;2022-10-30T06:25:35;98673.16;;;12.73;100.00
34482;BME280;20720;48.886;9.388;2022-10-30T06:28:00;98673.94;;;12.80;100.00
34482;BME280;20720;48.886;9.388;2022-10-30T06:30:27;98680.84;;;13.07;100.00
34482;BME280;20720;48.886;9.388;2022-10-30T06:32:59;98682.06;;;13.04;100.00
34482;BME280;20720;48.886;9.388;2022-10-30T06:35:25;98684.09;;;12.96;100.00
34482;BME280;20720;48.886;9.388;2022-10-30T06:37:51;98685.53;;;13.05;100.00
34482;BME280;20720;48.886;9.388;2022-10-30T06:40:17;98688.94;;;13.18;100.00
34482;BME280;20720;48.886;9.388;2022-10-30T06:42:44;98681.47;;;13.09;100.00
34482;BME280;20720;48.886;9.388;2022-10-30T06:45:10;98692.41;;;13.06;100.00
34482;BME280;20720;48.886;9.388;2022-10-30T06:47:36;98688.28;;;13.36;100.00
34482;BME280;20720;48.886;9.388;2022-10-30T06:50:04;98684.75;;;13.62;100.00
34482;BME280;20720;48.886;9.388;2022-10-30T06:52:29;98690.59;;;13.00;100.00
34482;BME280;20720;48.886;9.388;2022-10-30T06:54:55;98684.59;;;13.94;100.00
34482;BME280;20720;48.886;9.388;2022-10-30T06:57:20;98694.72;;;14.66;100.00
34482;BME280;20720;48.886;9.388;2022-10-30T06:59:45;98689.66;;;15.26;100.00
34482;BME280;20720;48.886;9.388;2022-10-30T07:02:10;98697.97;;;15.11;100.00
34482;BME280;20720;48.886;9.388;2022-10-30T07:04:36;98689.03;;;15.66;100.00
34482;BME280;20720;48.886;9.388;2022-10-30T07:07:02;98685.25;;;16.22;100.00
34482;BME280;20720;48.886;9.388;2022-10-30T07:09:28;98693.31;;;16.56;100.00
34482;BME280;20720;48.886;9.388;2022-10-30T07:11:53;98691.13;;;17.34;100.00
34482;BME280;20720;48.886;9.388;2022-10-30T07:14:18;98699.00;;;17.52;100.00
34482;BME280;20720;48.886;9.388;2022-10-30T07:16:44;98708.25;;;17.15;100.00
34482;BME280;20720;48.886;9.388;2022-10-30T07:19:09;98714.66;;;16.50;100.00
34482;BME280;20720;48.886;9.388;2022-10-30T07:21:34;98724.97;;;16.40;100.00
34482;BME280;20720;48.886;9.388;2022-10-30T07:24:00;98717.72;;;16.88;100.00
34482;BME280;20720;48.886;9.388;2022-10-30T07:26:25;98709.41;;;17.19;100.00
34482;BME280;20720;48.886;9.388;2022-10-30T07:28:50;98713.31;;;17.17;100.00
34482;BME280;20720;48.886;9.388;2022-10-30T07:31:16;98714.97;;;17.52;100.00
34482;BME280;20720;48.886;9.388;2022-10-30T07:33:41;98713.72;;;18.11;100.00
34482;BME280;20720;48.886;9.388;2022-10-30T07:36:07;98707.06;;;18.70;100.00
34482;BME280;20720;48.886;9.388;2022-10-30T07:38:32;98721.94;;;18.66;100.00
34482;BME280;20720;48.886;9.388;2022-10-30T07:40:57;98720.75;;;18.73;100.00
34482;BME280;20720;48.886;9.388;2022-10-30T07:43:23;98721.94;;;18.10;100.00
34482;BME280;20720;48.886;9.388;2022-10-30T07:45:48;98722.09;;;18.76;100.00
34482;BME280;20720;48.886;9.388;2022-10-30T07:48:13;98722.09;;;19.64;100.00
34482;BME280;20720;48.886;9.388;2022-10-30T07:50:38;98728.84;;;20.15;100.00
34482;BME280;20720;48.886;9.388;2022-10-30T07:53:04;98730.91;;;20.61;100.00
34482;BME280;20720;48.886;9.388;2022-10-30T07:55:29;98733.22;;;20.79;100.00
34482;BME280;20720;48.886;9.388;2022-10-30T07:57:55;98742.91;;;20.85;100.00
34482;BME280;20720;48.886;9.388;2022-10-30T08:00:21;98733.25;;;21.16;100.00
34482;BME280;20720;48.886;9.388;2022-10-30T08:02:50;98740.78;;;21.66;100.00
34482;BME280;20720;48.886;9.388;2022-10-30T08:05:16;98746.09;;;22.07;100.00
34482;BME280;20720;48.886;9.388;2022-10-30T08:07:45;98752.22;;;20.51;100.00
34482;BME280;20720;48.886;9.388;2022-10-30T08:10:11;98751.22;;;21.67;100.00
34482;BME280;20720;48.886;9.388;2022-10-30T08:12:36;98741.72;;;22.63;100.00
34482;BME280;20720;48.886;9.388;2022-10-30T08:15:04;98744.13;;;22.85;98.20
34482;BME280;20720;48.886;9.388;2022-10-30T08:17:29;98751.88;;;23.21;97.26
34482;BME280;20720;48.886;9.388;2022-10-30T08:19:54;98751.34;;;23.09;97.71
34482;BME280;20720;48.886;9.388;2022-10-30T08:22:21;98753.06;;;23.94;90.63
34482;BME280;20720;48.886;9.388;2022-10-30T08:24:46;98761.38;;;24.08;90.64
34482;BME280;20720;48.886;9.388;2022-10-30T08:27:11;98760.75;;;24.21;83.41
34482;BME280;20720;48.886;9.388;2022-10-30T08:29:37;98765.16;;;24.07;87.97
34482;BME280;20720;48.886;9.388;2022-10-30T08:32:02;98761.56;;;24.75;79.94
34482;BME280;20720;48.886;9.388;2022-10-30T08:34:27;98752.59;;;25.18;81.36
34482;BME280;20720;48.886;9.388;2022-10-30T08:36:55;98759.63;;;25.14;76.81
34482;BME280;20720;48.886;9.388;2022-10-30T08:39:21;98760.06;;;26.26;71.36
34482;BME280;20720;48.886;9.388;2022-10-30T08:41:46;98762.41;;;26.51;69.66
34482;BME280;20720;48.886;9.388;2022-10-30T08:44:11;98765.41;;;26.87;66.22
34482;BME280;20720;48.886;9.388;2022-10-30T08:46:37;98773.13;;;27.26;64.49
34482;BME280;20720;48.886;9.388;2022-10-30T08:49:03;98763.16;;;26.38;65.93
34482;BME280;20720;48.886;9.388;2022-10-30T08:51:31;98764.44;;;26.96;66.29
34482;BME280;20720;48.886;9.388;2022-10-30T08:53:58;98766.88;;;26.79;65.17
34482;BME280;20720;48.886;9.388;2022-10-30T08:56:23;98766.97;;;26.14;67.22
34482;BME280;20720;48.886;9.388;2022-10-30T08:58:49;98767.31;;;27.19;63.35
34482;BME280;20720;48.886;9.388;2022-10-30T09:01:15;98762.03;;;26.95;63.79
34482;BME280;20720;48.886;9.388;2022-10-30T09:03:40;98764.72;;;27.73;61.30
34482;BME280;20720;48.886;9.388;2022-10-30T09:06:07;98764.41;;;27.88;61.52
34482;BME280;20720;48.886;9.388;2022-10-30T09:08:32;98769.03;;;28.01;58.77
34482;BME280;20720;48.886;9.388;2022-10-30T09:10:58;98763.81;;;27.64;59.81
34482;BME280;20720;48.886;9.388;2022-10-30T09:13:24;98768.56;;;27.99;58.35
34482;BME280;20720;48.886;9.388;2022-10-30T09:15:50;98769.50;;;28.57;57.28
34482;BME280;20720;48.886;9.388;2022-10-30T09:18:15;98769.28;;;28.90;55.50
34482;BME280;20720;48.886;9.388;2022-10-30T09:20:41;98764.13;;;27.30;59.42
34482;BME280;20720;48.886;9.388;2022-10-30T09:23:06;98767.06;;;27.02;61.55
34482;BME280;20720;48.886;9.388;2022-10-30T09:25:32;98766.97;;;27.98;60.35
34482;BME280;20720;48.886;9.388;2022-10-30T09:27:57;98769.03;;;28.01;59.50
34482;BME280;20720;48.886;9.388;2022-10-30T09:30:23;98773.38;;;28.02;57.65
34482;BME280;20720;48.886;9.388;2022-10-30T09:32:58;98766.00;;;27.62;59.47
34482;BME280;20720;48.886;9.388;2022-10-30T09:35:24;98777.56;;;28.22;55.98
34482;BME280;20720;48.886;9.388;2022-10-30T09:37:51;98775.94;;;27.80;58.23
34482;BME280;20720;48.886;9.388;2022-10-30T09:40:21;98775.22;;;28.42;55.62
34482;BME280;20720;48.886;9.388;2022-10-30T09:42:48;98780.66;;;28.15;56.70
34482;BME280;20720;48.886;9.388;2022-10-30T09:45:40;98777.84;;;28.20;59.19
34482;BME280;20720;48.886;9.388;2022-10-30T09:48:27;98773.91;;;28.40;55.26
34482;BME280;20720;48.886;9.388;2022-10-30T09:54:05;98779.88;;;30.22;50.16
34482;BME280;20720;48.886;9.388;2022-10-30T09:56:41;98774.72;;;30.77;49.22
34482;BME280;20720;48.886;9.388;2022-10-30T10:04:39;98772.31;;;30.02;49.67
34482;BME280;20720;48.886;9.388;2022-10-30T10:09:41;98774.06;;;30.72;49.28
34482;BME280;20720;48.886;9.388;2022-10-30T10:12:15;98779.69;;;30.92;50.08
34482;BME280;20720;48.886;9.388;2022-10-30T10:14:45;98769.28;;;29.95;52.17
34482;BME280;20720;48.886;9.388;2022-10-30T10:17:17;98770.47;;;28.97;51.99
34482;BME280;20720;48.886;9.388;2022-10-30T10:19:50;98770.63;;;30.23;49.49
34482;BME280;20720;48.886;9.388;2022-10-30T10:22:26;98767.78;;;31.31;48.92
34482;BME280;20720;48.886;9.388;2022-10-30T10:24:55;98770.44;;;30.85;47.94
34482;BME280;20720;48.886;9.388;2022-10-30T10:27:48;98772.28;;;31.10;48.47
34482;BME280;20720;48.886;9.388;2022-10-30T10:30:21;98769.31;;;30.12;50.86
34482;BME280;20720;48.886;9.388;2022-10-30T10:38:13;98764.13;;;31.90;48.54
34482;BME280;20720;48.886;9.388;2022-10-30T10:51:06;98762.53;;;32.48;48.15
34482;BME280;20720;48.886;9.388;2022-10-30T10:53:54;98759.16;;;31.29;51.60
34482;BME280;20720;48.886;9.388;2022-10-30T10:56:26;98749.44;;;31.74;50.10
34482;BME280;20720;48.886;9.388;2022-10-30T10:58:56;98754.06;;;32.61;49.34
34482;BME280;20720;48.886;9.388;2022-10-30T11:01:32;98749.72;;;33.34;47.18
34482;BME280;20720;48.886;9.388;2022-10-30T11:04:04;98746.78;;;33.27;48.14
34482;BME280;20720;48.886;9.388;2022-10-30T11:06:37;98743.59;;;32.72;45.50
34482;BME280;20720;48.886;9.388;2022-10-30T11:09:20;98741.22;;;32.20;48.80
34482;BME280;20720;48.886;9.388;2022-10-30T11:11:47;98733.97;;;32.54;49.73
34482;BME280;20720;48.886;9.388;2022-10-30T11:14:16;98737.56;;;32.66;49.42
34482;BME280;20720;48.886;9.388;2022-10-30T11:19:19;98734.94;;;30.73;50.44
34482;BME280;20720;48.886;9.388;2022-10-30T11:21:48;98733.44;;;31.81;49.72
34482;BME280;20720;48.886;9.388;2022-10-30T11:24:31;98729.31;;;32.54;47.59
34482;BME280;20720;48.886;9.388;2022-10-30T11:29:57;98727.69;;;33.39;45.23
34482;BME280;20720;48.886;9.388;2022-10-30T11:32:26;98725.06;;;34.11;45.08
34482;BME280;20720;48.886;9.388;2022-10-30T11:37:37;98722.72;;;33.41;47.16
34482;BME280;20720;48.886;9.388;2022-10-30T11:42:33;98725.44;;;34.38;43.02
34482;BME280;20720;48.886;9.388;2022-10-30T11:44:59;98720.59;;;33.71;43.33
34482;BME280;20720;48.886;9.388;2022-10-30T11:47:36;98717.94;;;34.47;43.27
34482;BME280;20720;48.886;9.388;2022-10-30T11:50:05;98715.19;;;33.14;43.28
34482;BME280;20720;48.886;9.388;2022-10-30T11:52:37;98709.22;;;34.17;43.09
34482;BME280;20720;48.886;9.388;2022-10-30T11:55:13;98717.19;;;33.50;43.54
34482;BME280;20720;48.886;9.388;2022-10-30T11:57:58;98707.84;;;34.75;42.78
34482;BME280;20720;48.886;9.388;2022-10-30T12:00:28;98709.59;;;33.55;44.02
34482;BME280;20720;48.886;9.388;2022-10-30T12:02:57;98715.88;;;32.28;46.79
34482;BME280;20720;48.886;9.388;2022-10-30T12:07:50;98702.97;;;33.44;44.78
34482;BME280;20720;48.886;9.388;2022-10-30T12:10:43;98707.63;;;32.46;46.14
34482;BME280;20720;48.886;9.388;2022-10-30T12:13:14;98701.06;;;31.88;48.74
34482;BME280;20720;48.886;9.388;2022-10-30T12:15:40;98695.66;;;30.79;49.89
34482;BME280;20720;48.886;9.388;2022-10-30T12:18:16;98694.41;;;30.85;50.44
34482;BME280;20720;48.886;9.388;2022-10-30T12:20:45;98699.19;;;30.71;51.54
34482;BME280;20720;48.886;9.388;2022-10-30T12:23:20;98696.31;;;30.58;50.92
34482;BME280;20720;48.886;9.388;2022-10-30T12:25:47;98685.63;;;30.88;48.48
34482;BME280;20720;48.886;9.388;2022-10-30T12:28:16;98691.97;;;31.00;48.42
34482;BME280;20720;48.886;9.388;2022-10-30T12:30:50;98685.25;;;31.15;49.79
34482;BME280;20720;48.886;9.388;2022-10-30T12:33:22;98686.28;;;30.85;48.99
34482;BME280;20720;48.886;9.388;2022-10-30T12:35:57;98683.72;;;31.34;46.85
34482;BME280;20720;48.886;9.388;2022-10-30T12:43:32;98679.09;;;31.35;46.90
34482;BME280;20720;48.886;9.388;2022-10-30T12:49:02;98686.44;;;32.51;43.44
34482;BME280;20720;48.886;9.388;2022-10-30T12:51:35;98683.50;;;32.56;43.09
34482;BME280;20720;48.886;9.388;2022-10-30T12:57:06;98676.16;;;32.15;42.68
34482;BME280;20720;48.886;9.388;2022-10-30T12:59:45;98677.69;;;31.67;45.80
34482;BME280;20720;48.886;9.388;2022-10-30T13:03:18;98674.63;;;31.30;45.84
34482;BME280;20720;48.886;9.388;2022-10-30T13:05:33;98675.72;;;31.76;45.62
34482;BME280;20720;48.886;9.388;2022-10-30T13:10:33;98668.28;;;31.64;45.37
34482;BME280;20720;48.886;9.388;2022-10-30T13:13:12;98665.56;;;31.93;47.97
34482;BME280;20720;48.886;9.388;2022-10-30T13:15:53;98668.50;;;32.29;50.78
34482;BME280;20720;48.886;9.388;2022-10-30T13:18:21;98662.94;;;32.05;51.81
34482;BME280;20720;48.886;9.388;2022-10-30T13:20:56;98660.28;;;31.88;52.07
34482;BME280;20720;48.886;9.388;2022-10-30T13:23:47;98667.19;;;32.15;53.53
34482;BME280;20720;48.886;9.388;2022-10-30T13:26:23;98666.34;;;32.44;52.08
34482;BME280;20720;48.886;9.388;2022-10-30T13:28:57;98665.00;;;32.50;51.65
34482;BME280;20720;48.886;9.388;2022-10-30T13:37:15;98667.91;;;32.24;52.25
34482;BME280;20720;48.886;9.388;2022-10-30T13:43:05;98654.31;;;32.03;50.56
34482;BME280;20720;48.886;9.388;2022-10-30T13:54:32;98662.47;;;32.98;47.16
34482;BME280;20720;48.886;9.388;2022-10-30T13:57:04;98661.72;;;32.56;47.27
34482;BME280;20720;48.886;9.388;2022-10-30T13:59:45;98667.16;;;32.35;48.49
34482;BME280;20720;48.886;9.388;2022-10-30T14:04:59;98655.66;;;33.16;46.44
34482;BME280;20720;48.886;9.388;2022-10-30T14:07:37;98660.81;;;32.85;46.66
34482;BME280;20720;48.886;9.388;2022-10-30T14:10:24;98658.50;;;33.07;46.96
34482;BME280;20720;48.886;9.388;2022-10-30T14:20:36;98656.53;;;33.53;46.17
34482;BME280;20720;48.886;9.388;2022-10-30T14:23:06;98655.00;;;33.31;45.84
34482;BME280;20720;48.886;9.388;2022-10-30T14:25:33;98650.31;;;32.63;47.99
34482;BME280;20720;48.886;9.388;2022-10-30T14:27:58;98648.28;;;31.89;51.03
34482;BME280;20720;48.886;9.388;2022-10-30T14:30:26;98647.69;;;31.08;53.11
34482;BME280;20720;48.886;9.388;2022-10-30T14:32:51;98644.63;;;30.38;56.27
34482;BME280;20720;48.886;9.388;2022-10-30T14:37:55;98651.69;;;28.73;66.15
34482;BME280;20720;48.886;9.388;2022-10-30T14:40:35;98656.75;;;28.66;67.25
34482;BME280;20720;48.886;9.388;2022-10-30T14:43:16;98651.44;;;28.39;69.48
34482;BME280;20720;48.886;9.388;2022-10-30T14:45:49;98647.56;;;27.96;71.97
34482;BME280;20720;48.886;9.388;2022-10-30T14:48:25;98648.34;;;28.10;72.24
34482;BME280;20720;48.886;9.388;2022-10-30T14:56:45;98651.34;;;27.27;74.07